Sacramento, California
Traffic Map
Current Weather Conditions
Sacramento, California
Clear
Clear
38°
Feels Like: 38°
Wind Chill: 38° Ceiling: Unl
Heat Index: 38° Visibility: 10mi
Dew Point: 38° Wind: 0mph
Humidity: 100% Direction: ° ()
Pressure: 30.23in Gusts: 0mph
Raw Report DataKSAC 221453Z 00000KT 10SM CLR 03/03 A3023 RMK AO2 SLP235 T00330033 58001
Traffic Incident Summary
Active as of:
Severity:
Category:
InformationThere was an issue retrieving the traffic information for this location. Please try a different location or try again shortly.
Advertisements
Track Severe Weather on mobile